POGODA: Poland

Lotnisko: Wroclaw Ii

METAR KOD: EPWR


METAR: EPWR 211930Z 16003KT 110V200 CAVOK 13/09 Q1002


BLOK
Pogoda METAR
211930Z
Dzien: 21, Godzina: 19:30 UTC.
16003KT
Wiatr z kierunku 160, o predkosci 6 km/h
110V200
Wiatr zmienny pomiedzy 110 i 200
CAVOK
Widzialnosc pow. 10 km, brak chmur pon. 1500 m., brak CB, brak opadow, burz i innych
13/09
Temperatura: powietrze 13°C, punkt rosy 9°C . Wilgotnosc wzgledna 69 %
Q1002
Cisnienie: 1002 hPa

Pogoda na innym lotnisku

Pogoda Gdansk-Rebiechowo WEATHER Poland  
Pogoda Katowice WEATHER Poland  
Pogoda Krakow WEATHER Poland  
Pogoda Poznan WEATHER Poland  
Pogoda Rzeszow-Jasionka WEATHER Poland  
Pogoda Szczecin WEATHER Poland  
Pogoda Warszawa-Okecie WEATHER Poland  
Pogoda Wroclaw Ii WEATHER Poland  

Pogoda w inny kraju

Strona startowa

(C) by GREGOR 2007
Ogłoszenia Towarzyskie